createdAt,value
2016-05-18T00:00:05.306Z,1007.27
2016-05-18T00:01:05.293Z,1007.24
2016-05-18T00:02:05.281Z,1007.26
2016-05-18T00:03:05.267Z,1007.23
2016-05-18T00:04:05.255Z,1007.23
2016-05-18T00:05:05.242Z,1007.24
2016-05-18T00:06:05.229Z,1007.24
2016-05-18T00:07:05.216Z,1007.21
2016-05-18T00:08:05.202Z,1007.17
2016-05-18T00:09:05.190Z,1007.22
2016-05-18T00:10:05.177Z,1007.2
2016-05-18T00:11:05.164Z,1007.22
2016-05-18T00:12:05.166Z,1007.25
2016-05-18T00:13:05.138Z,1007.2
2016-05-18T00:14:05.126Z,1007.24
2016-05-18T00:15:05.112Z,1007.22
2016-05-18T00:16:05.099Z,1007.19
2016-05-18T00:17:05.087Z,1007.2
2016-05-18T00:18:05.074Z,1007.17
2016-05-18T00:19:05.060Z,1007.16
2016-05-18T00:20:05.048Z,1007.17
2016-05-18T00:21:05.034Z,1007.16
2016-05-18T00:22:05.022Z,1007.15
2016-05-18T00:23:05.009Z,1007.14
2016-05-18T00:24:04.995Z,1007.16
2016-05-18T00:25:04.984Z,1007.13
2016-05-18T00:26:04.970Z,1007.13
2016-05-18T00:27:04.956Z,1007.15
2016-05-18T00:28:04.944Z,1007.17
2016-05-18T00:29:04.931Z,1007.15
2016-05-18T00:30:04.919Z,1007.12
2016-05-18T00:31:04.905Z,1007.15
2016-05-18T00:32:04.893Z,1007.1
2016-05-18T00:33:04.880Z,1007.09
2016-05-18T00:34:04.866Z,1007.09
2016-05-18T00:35:04.853Z,1007.06
2016-05-18T00:36:04.841Z,1007.09
2016-05-18T00:37:04.858Z,1007.07
2016-05-18T00:38:04.847Z,1007.06
2016-05-18T00:39:04.802Z,1007.03
2016-05-18T00:40:04.788Z,1007.02
2016-05-18T00:41:04.792Z,1006.97
2016-05-18T00:42:04.763Z,1006.99
2016-05-18T00:43:04.749Z,1007.06
2016-05-18T00:44:04.738Z,1006.97
2016-05-18T00:45:04.724Z,1006.98
2016-05-18T00:46:04.712Z,1006.98
2016-05-18T00:47:04.698Z,1006.94
2016-05-18T00:48:04.685Z,1006.94
2016-05-18T00:49:04.672Z,1006.94
2016-05-18T00:50:04.660Z,1006.96
2016-05-18T00:51:04.646Z,1006.98
2016-05-18T00:52:04.618Z,1006.98
2016-05-18T00:53:04.621Z,1007.02
2016-05-18T00:54:04.608Z,1006.95
2016-05-18T00:55:04.595Z,1006.98
2016-05-18T00:56:04.566Z,1006.97
2016-05-18T00:57:04.569Z,1006.98
2016-05-18T00:58:04.556Z,1006.97
2016-05-18T00:59:04.528Z,1006.94
2016-05-18T01:00:04.530Z,1006.92
2016-05-18T01:01:04.502Z,1006.91
2016-05-18T01:02:04.505Z,1006.89
2016-05-18T01:03:04.475Z,1006.88
2016-05-18T01:04:04.463Z,1006.91
2016-05-18T01:05:04.450Z,1006.86
2016-05-18T01:06:04.437Z,1006.94
2016-05-18T01:07:04.439Z,1006.82
2016-05-18T01:08:04.974Z,1006.87
2016-05-18T01:09:04.399Z,1006.88
2016-05-18T01:10:04.385Z,1006.86
2016-05-18T01:11:04.372Z,1006.91
2016-05-18T01:12:04.359Z,1006.88
2016-05-18T01:13:04.347Z,1006.88
2016-05-18T01:14:04.349Z,1006.89
2016-05-18T01:15:04.318Z,1006.85
2016-05-18T01:16:04.304Z,1006.86
2016-05-18T01:17:04.292Z,1006.87
2016-05-18T01:18:04.438Z,1006.86
2016-05-18T01:19:04.282Z,1006.81
2016-05-18T01:20:04.253Z,1006.85
2016-05-18T01:21:04.241Z,1006.83
2016-05-18T01:22:04.227Z,1006.85
2016-05-18T01:23:04.215Z,1006.83
2016-05-18T01:24:04.201Z,1006.86
2016-05-18T01:25:04.188Z,1006.83
2016-05-18T01:26:04.426Z,1006.84
2016-05-18T01:27:04.162Z,1006.79
2016-05-18T01:28:04.150Z,1006.84
2016-05-18T01:29:04.137Z,1006.81
2016-05-18T01:30:04.123Z,1006.77
2016-05-18T01:31:04.111Z,1006.77
2016-05-18T01:32:04.097Z,1006.77
2016-05-18T01:33:04.086Z,1006.76
2016-05-18T01:34:04.431Z,1006.77
2016-05-18T01:35:04.059Z,1006.74
2016-05-18T01:36:04.046Z,1006.7
2016-05-18T01:37:04.033Z,1006.71
2016-05-18T01:38:04.099Z,1006.75
2016-05-18T01:39:04.007Z,1006.73
2016-05-18T01:40:03.994Z,1006.78
2016-05-18T01:41:03.982Z,1006.69
2016-05-18T01:42:04.469Z,1006.71
2016-05-18T01:43:03.955Z,1006.7
2016-05-18T01:44:03.943Z,1006.69
2016-05-18T01:45:03.930Z,1006.68
2016-05-18T01:46:03.916Z,1006.73
2016-05-18T01:47:03.904Z,1006.65
2016-05-18T01:48:03.891Z,1006.66
2016-05-18T01:49:03.879Z,1006.66
2016-05-18T01:50:04.459Z,1006.68
2016-05-18T01:51:03.852Z,1006.65
2016-05-18T01:52:03.839Z,1006.63
2016-05-18T01:53:03.826Z,1006.62
2016-05-18T01:54:03.813Z,1006.56
2016-05-18T01:55:03.800Z,1006.61
2016-05-18T01:56:03.787Z,1006.6
2016-05-18T01:57:03.775Z,1006.55
2016-05-18T01:58:04.449Z,1006.55
2016-05-18T01:59:03.748Z,1006.58
2016-05-18T02:00:03.736Z,1006.57
2016-05-18T02:01:03.723Z,1006.56
2016-05-18T02:02:03.709Z,1006.51
2016-05-18T02:03:03.682Z,1006.49
2016-05-18T02:04:03.669Z,1006.47
2016-05-18T02:05:03.671Z,1006.48
2016-05-18T02:06:03.705Z,1006.45
2016-05-18T02:07:03.645Z,1006.44
2016-05-18T02:08:03.632Z,1006.43
2016-05-18T02:09:03.619Z,1006.45
2016-05-18T02:10:03.606Z,1006.44
2016-05-18T02:11:03.577Z,1006.42
2016-05-18T02:12:03.581Z,1006.44
2016-05-18T02:13:03.568Z,1006.4
2016-05-18T02:14:04.538Z,1006.41
2016-05-18T02:15:03.527Z,1006.36
2016-05-18T02:16:03.513Z,1006.37
2016-05-18T02:17:03.500Z,1006.36
2016-05-18T02:18:03.487Z,1006.33
2016-05-18T02:19:03.474Z,1006.34
2016-05-18T02:20:03.462Z,1006.35
2016-05-18T02:21:03.448Z,1006.33
2016-05-18T02:22:03.748Z,1006.3
2016-05-18T02:23:03.423Z,1006.31
2016-05-18T02:24:03.410Z,1006.24
2016-05-18T02:25:03.396Z,1006.27
2016-05-18T02:26:03.384Z,1006.2
2016-05-18T02:27:03.371Z,1006.25
2016-05-18T02:28:03.373Z,1006.19
2016-05-18T02:29:03.345Z,1006.18
2016-05-18T02:30:03.784Z,1006.14
2016-05-18T02:31:03.320Z,1006.15
2016-05-18T02:32:03.322Z,1006.16
2016-05-18T02:33:03.293Z,1006.15
2016-05-18T02:34:03.280Z,1006.15
2016-05-18T02:35:03.267Z,1006.11
2016-05-18T02:36:03.255Z,1006.13
2016-05-18T02:37:03.242Z,1006.1
2016-05-18T02:38:03.431Z,1006.07
2016-05-18T02:39:03.216Z,1006.05
2016-05-18T02:40:03.203Z,1006.06
2016-05-18T02:41:03.189Z,1006.06
2016-05-18T02:42:03.177Z,1006.03
2016-05-18T02:43:03.164Z,1005.99
2016-05-18T02:44:03.151Z,1006.03
2016-05-18T02:45:03.138Z,1005.97
2016-05-18T02:46:03.124Z,1005.98
2016-05-18T02:47:03.113Z,1005.96
2016-05-18T02:48:03.099Z,1005.98
2016-05-18T02:49:03.086Z,1005.96
2016-05-18T02:50:03.073Z,1005.94
2016-05-18T02:51:03.061Z,1005.92
2016-05-18T02:52:03.048Z,1005.95
2016-05-18T02:53:03.300Z,1005.9
2016-05-18T02:54:03.022Z,1005.94
2016-05-18T02:55:03.009Z,1005.95
2016-05-18T02:56:03.011Z,1005.89
2016-05-18T02:57:02.982Z,1005.92
2016-05-18T02:58:02.970Z,1005.91
2016-05-18T02:59:02.957Z,1005.93
2016-05-18T03:00:02.944Z,1005.86
2016-05-18T03:01:02.931Z,1005.83
2016-05-18T03:02:02.918Z,1005.85
2016-05-18T03:03:02.905Z,1005.82
2016-05-18T03:04:02.892Z,1005.78
2016-05-18T03:05:02.879Z,1005.81
2016-05-18T03:06:02.867Z,1005.8
2016-05-18T03:07:02.853Z,1005.72
2016-05-18T03:08:02.841Z,1005.73
2016-05-18T03:09:02.827Z,1005.7
2016-05-18T03:10:02.814Z,1005.69
2016-05-18T03:11:02.802Z,1005.68
2016-05-18T03:12:02.788Z,1005.68
2016-05-18T03:13:02.776Z,1005.69
2016-05-18T03:14:02.747Z,1005.67
2016-05-18T03:15:02.749Z,1005.72
2016-05-18T03:16:02.737Z,1005.68
2016-05-18T03:17:02.708Z,1005.72
2016-05-18T03:18:02.711Z,1005.66
2016-05-18T03:19:02.682Z,1005.69
2016-05-18T03:20:02.670Z,1005.64
2016-05-18T03:21:02.657Z,1005.62
2016-05-18T03:22:02.659Z,1005.63
2016-05-18T03:23:02.646Z,1005.65
2016-05-18T03:24:02.633Z,1005.63
2016-05-18T03:25:02.605Z,1005.59
2016-05-18T03:26:02.592Z,1005.63
2016-05-18T03:27:02.579Z,1005.63
2016-05-18T03:28:02.566Z,1005.64
2016-05-18T03:29:02.553Z,1005.65
2016-05-18T03:30:02.540Z,1005.61
2016-05-18T03:31:02.528Z,1005.65
2016-05-18T03:32:02.515Z,1005.6
2016-05-18T03:33:02.501Z,1005.58
2016-05-18T03:34:02.489Z,1005.57
2016-05-18T03:35:02.475Z,1005.56
2016-05-18T03:36:02.462Z,1005.57
2016-05-18T03:37:02.450Z,1005.6
2016-05-18T03:38:02.436Z,1005.56
2016-05-18T03:39:02.425Z,1005.56
2016-05-18T03:40:02.410Z,1005.58
2016-05-18T03:41:02.397Z,1005.54
2016-05-18T03:42:02.385Z,1005.56
2016-05-18T03:43:02.372Z,1005.58
2016-05-18T03:44:02.359Z,1005.54
2016-05-18T03:45:02.347Z,1005.56
2016-05-18T03:46:02.333Z,1005.52
2016-05-18T03:47:02.321Z,1005.51
2016-05-18T03:48:02.308Z,1005.5
2016-05-18T03:49:02.294Z,1005.48
2016-05-18T03:50:02.282Z,1005.46
2016-05-18T03:51:02.269Z,1005.47
2016-05-18T03:52:02.255Z,1005.49
2016-05-18T03:53:02.743Z,1005.47
2016-05-18T03:54:02.229Z,1005.51
2016-05-18T03:55:02.218Z,1005.51
2016-05-18T03:56:02.204Z,1005.49
2016-05-18T03:57:02.191Z,1005.5
2016-05-18T03:58:02.179Z,1005.46
2016-05-18T03:59:02.165Z,1005.5
2016-05-18T04:00:02.152Z,1005.54
2016-05-18T04:01:02.139Z,1005.56
2016-05-18T04:02:02.126Z,1005.53
2016-05-18T04:03:02.114Z,1005.52
2016-05-18T04:04:02.101Z,1005.49
2016-05-18T04:05:02.087Z,1005.51
2016-05-18T04:06:02.075Z,1005.47
2016-05-18T04:07:02.046Z,1005.5
2016-05-18T04:08:02.048Z,1005.46
2016-05-18T04:09:02.036Z,1005.48
2016-05-18T04:10:02.008Z,1005.48
2016-05-18T04:11:02.010Z,1005.48
2016-05-18T04:12:01.997Z,1005.45
2016-05-18T04:13:01.969Z,1005.43
2016-05-18T04:14:01.972Z,1005.47
2016-05-18T04:15:01.942Z,1005.5
2016-05-18T04:16:01.930Z,1005.45
2016-05-18T04:17:01.932Z,1005.46
2016-05-18T04:18:01.904Z,1005.44
2016-05-18T04:19:01.907Z,1005.43
2016-05-18T04:20:01.877Z,1005.44
2016-05-18T04:21:01.866Z,1005.46
2016-05-18T04:22:01.852Z,1005.41
2016-05-18T04:23:01.839Z,1005.39
2016-05-18T04:24:01.826Z,1005.36
2016-05-18T04:25:01.813Z,1005.35
2016-05-18T04:26:01.801Z,1005.38
2016-05-18T04:27:01.787Z,1005.4
2016-05-18T04:28:01.775Z,1005.37
2016-05-18T04:29:01.762Z,1005.36
2016-05-18T04:30:01.748Z,1005.41
2016-05-18T04:31:01.735Z,1005.39
2016-05-18T04:32:01.722Z,1005.39
2016-05-18T04:33:01.709Z,1005.38
2016-05-18T04:34:01.697Z,1005.38
2016-05-18T04:35:01.684Z,1005.38
2016-05-18T04:36:01.671Z,1005.42
2016-05-18T04:37:01.659Z,1005.39
2016-05-18T04:38:01.645Z,1005.4
2016-05-18T04:39:01.632Z,1005.41
2016-05-18T04:40:01.620Z,1005.38
2016-05-18T04:41:01.606Z,1005.44
2016-05-18T04:42:01.594Z,1005.44
2016-05-18T04:43:01.580Z,1005.39
2016-05-18T04:44:01.583Z,1005.39
2016-05-18T04:45:01.555Z,1005.42
2016-05-18T04:46:01.542Z,1005.4
2016-05-18T04:47:01.528Z,1005.32
2016-05-18T04:48:01.516Z,1005.32
2016-05-18T04:49:01.502Z,1005.36
2016-05-18T04:50:01.490Z,1005.36
2016-05-18T04:51:01.477Z,1005.35
2016-05-18T04:52:01.464Z,1005.33
2016-05-18T04:53:01.452Z,1005.31
2016-05-18T04:54:01.438Z,1005.33
2016-05-18T04:55:01.425Z,1005.32
2016-05-18T04:56:01.412Z,1005.3
2016-05-18T04:57:01.399Z,1005.28
2016-05-18T04:58:01.386Z,1005.32
2016-05-18T04:59:01.374Z,1005.31
2016-05-18T05:00:01.360Z,1005.33
2016-05-18T05:01:01.348Z,1005.32
2016-05-18T05:02:01.335Z,1005.33
2016-05-18T05:03:01.321Z,1005.35
2016-05-18T05:04:01.309Z,1005.37
2016-05-18T05:05:01.295Z,1005.35
2016-05-18T05:06:01.267Z,1005.36
2016-05-18T05:07:01.254Z,1005.38
2016-05-18T05:08:01.256Z,1005.37
2016-05-18T05:09:01.228Z,1005.35
2016-05-18T05:10:01.216Z,1005.39
2016-05-18T05:11:01.217Z,1005.36
2016-05-18T05:12:01.205Z,1005.36
2016-05-18T05:13:01.177Z,1005.38
2016-05-18T05:14:01.164Z,1005.36
2016-05-18T05:15:01.150Z,1005.34
2016-05-18T05:16:01.153Z,1005.39
2016-05-18T05:17:01.125Z,1005.39
2016-05-18T05:18:01.112Z,1005.33
2016-05-18T05:19:01.115Z,1005.33
2016-05-18T05:20:01.086Z,1005.36
2016-05-18T05:21:01.073Z,1005.31
2016-05-18T05:22:01.060Z,1005.33
2016-05-18T05:23:01.063Z,1005.33
2016-05-18T05:24:01.035Z,1005.38
2016-05-18T05:25:01.022Z,1005.36
2016-05-18T05:26:01.008Z,1005.36
2016-05-18T05:27:00.996Z,1005.4
2016-05-18T05:28:00.998Z,1005.36
2016-05-18T05:29:00.971Z,1005.38
2016-05-18T05:30:00.957Z,1005.36
2016-05-18T05:31:00.943Z,1005.37
2016-05-18T05:32:00.931Z,1005.33
2016-05-18T05:33:00.918Z,1005.35
2016-05-18T05:34:00.905Z,1005.32
2016-05-18T05:35:00.892Z,1005.34
2016-05-18T05:36:00.879Z,1005.3
2016-05-18T05:37:00.866Z,1005.29
2016-05-18T05:38:01.057Z,1005.33
2016-05-18T05:39:00.840Z,1005.34
2016-05-18T05:40:00.828Z,1005.33
2016-05-18T05:41:00.815Z,1005.34
2016-05-18T05:42:00.801Z,1005.34
2016-05-18T05:43:00.789Z,1005.34
2016-05-18T05:44:00.775Z,1005.37
2016-05-18T05:45:00.763Z,1005.34
2016-05-18T05:46:00.750Z,1005.34
2016-05-18T05:47:00.736Z,1005.39
2016-05-18T05:48:00.724Z,1005.38
2016-05-18T05:49:00.711Z,1005.43
2016-05-18T05:50:00.697Z,1005.38
2016-05-18T05:51:00.685Z,1005.37
2016-05-18T05:52:00.672Z,1005.41
2016-05-18T05:53:01.190Z,1005.36
2016-05-18T05:54:00.646Z,1005.4
2016-05-18T05:55:00.618Z,1005.41
2016-05-18T05:56:00.621Z,1005.43
2016-05-18T05:57:00.702Z,1005.41
2016-05-18T05:58:00.580Z,1005.41
2016-05-18T05:59:00.582Z,1005.4
2016-05-18T06:00:00.553Z,1005.36
2016-05-18T06:01:00.556Z,1005.38
2016-05-18T06:02:00.527Z,1005.43
2016-05-18T06:03:00.546Z,1005.36
2016-05-18T06:04:00.517Z,1005.39
2016-05-18T06:05:00.848Z,1005.37
2016-05-18T06:06:00.476Z,1005.38
2016-05-18T06:07:00.462Z,1005.37
2016-05-18T06:08:00.465Z,1005.37
2016-05-18T06:09:00.437Z,1005.34
2016-05-18T06:10:00.423Z,1005.36
2016-05-18T06:11:00.411Z,1005.36
2016-05-18T06:12:00.398Z,1005.38
2016-05-18T06:13:00.791Z,1005.33
2016-05-18T06:14:00.372Z,1005.34
2016-05-18T06:15:00.358Z,1005.32
2016-05-18T06:16:00.346Z,1005.33
2016-05-18T06:17:00.334Z,1005.33
2016-05-18T06:18:00.320Z,1005.33
2016-05-18T06:19:00.307Z,1005.33
2016-05-18T06:20:00.294Z,1005.33
2016-05-18T06:21:00.735Z,1005.33
2016-05-18T06:22:00.269Z,1005.3
2016-05-18T06:23:00.255Z,1005.34
2016-05-18T06:24:00.243Z,1005.3
2016-05-18T06:25:00.230Z,1005.32
2016-05-18T06:26:00.216Z,1005.31
2016-05-18T06:27:00.204Z,1005.32
2016-05-18T06:28:00.191Z,1005.32
2016-05-18T06:29:00.724Z,1005.3
2016-05-18T06:30:00.165Z,1005.28
2016-05-18T06:31:00.152Z,1005.29
2016-05-18T06:32:00.139Z,1005.29
2016-05-18T06:33:00.126Z,1005.32
2016-05-18T06:34:00.113Z,1005.3
2016-05-18T06:35:00.101Z,1005.29
2016-05-18T06:36:00.088Z,1005.25
2016-05-18T06:37:00.778Z,1005.26
2016-05-18T06:38:00.062Z,1005.27
2016-05-18T06:39:00.048Z,1005.28
2016-05-18T06:40:00.036Z,1005.29
2016-05-18T06:41:00.023Z,1005.29
2016-05-18T06:41:59.995Z,1005.33
2016-05-18T06:42:59.981Z,1005.28
2016-05-18T06:43:59.967Z,1005.25
2016-05-18T06:45:00.017Z,1005.26
2016-05-18T06:45:59.942Z,1005.26
2016-05-18T06:46:59.930Z,1005.25
2016-05-18T06:47:59.916Z,1005.27
2016-05-18T06:48:59.904Z,1005.3
2016-05-18T06:49:59.891Z,1005.28
2016-05-18T06:50:59.878Z,1005.25
2016-05-18T06:51:59.865Z,1005.3
2016-05-18T06:53:00.055Z,1005.23
2016-05-18T06:53:59.839Z,1005.25
2016-05-18T06:54:59.827Z,1005.22
2016-05-18T06:55:59.813Z,1005.23
2016-05-18T06:56:59.800Z,1005.22
2016-05-18T06:57:59.788Z,1005.21
2016-05-18T06:58:59.774Z,1005.16
2016-05-18T06:59:59.761Z,1005.19
2016-05-18T07:01:00.796Z,1005.22
2016-05-18T07:01:59.751Z,1005.19
2016-05-18T07:02:59.738Z,1005.19
2016-05-18T07:03:59.710Z,1005.22
2016-05-18T07:04:59.696Z,1005.21
2016-05-18T07:05:59.684Z,1005.18
2016-05-18T07:06:59.671Z,1005.19
2016-05-18T07:07:59.657Z,1005.19
2016-05-18T07:09:00.801Z,1005.15
2016-05-18T07:09:59.632Z,1005.18
2016-05-18T07:10:59.620Z,1005.19
2016-05-18T07:11:59.606Z,1005.22
2016-05-18T07:12:59.593Z,1005.2
2016-05-18T07:13:59.580Z,1005.24
2016-05-18T07:14:59.568Z,1005.23
2016-05-18T07:15:59.554Z,1005.24
2016-05-18T07:16:59.542Z,1005.28
2016-05-18T07:17:59.528Z,1005.31
2016-05-18T07:18:59.516Z,1005.24
2016-05-18T07:19:59.503Z,1005.32
2016-05-18T07:20:59.474Z,1005.32
2016-05-18T07:21:59.477Z,1005.29
2016-05-18T07:22:59.464Z,1005.32
2016-05-18T07:23:59.435Z,1005.34
2016-05-18T07:24:59.422Z,1005.31
2016-05-18T07:25:59.425Z,1005.32
2016-05-18T07:26:59.397Z,1005.3
2016-05-18T07:27:59.399Z,1005.3
2016-05-18T07:28:59.371Z,1005.3
2016-05-18T07:29:59.358Z,1005.27
2016-05-18T07:30:59.345Z,1005.21
2016-05-18T07:31:59.333Z,1005.25
2016-05-18T07:32:59.319Z,1005.25
2016-05-18T07:33:59.321Z,1005.19
2016-05-18T07:34:59.324Z,1005.18
2016-05-18T07:35:59.296Z,1005.18
2016-05-18T07:36:59.268Z,1005.16
2016-05-18T07:37:59.488Z,1005.1
2016-05-18T07:38:59.257Z,1005.13
2016-05-18T07:39:59.243Z,1005.07
2016-05-18T07:40:59.216Z,1005.08
2016-05-18T07:41:59.218Z,1005.1
2016-05-18T07:42:59.237Z,1005.12
2016-05-18T07:43:59.192Z,1005.09
2016-05-18T07:44:59.179Z,1005.06
2016-05-18T07:45:59.167Z,1005.16
2016-05-18T07:46:59.138Z,1005.12
2016-05-18T07:47:59.125Z,1005.1
2016-05-18T07:48:59.112Z,1005.09
2016-05-18T07:49:59.099Z,1005.09
2016-05-18T07:50:59.086Z,1005.1
2016-05-18T07:51:59.073Z,1005.09
2016-05-18T07:52:59.060Z,1005.05
2016-05-18T07:53:59.047Z,1005.03
2016-05-18T07:54:59.034Z,1005.01
2016-05-18T07:55:59.022Z,1004.97
2016-05-18T07:56:59.008Z,1005
2016-05-18T07:57:58.996Z,1004.98
2016-05-18T07:58:58.982Z,1004.97
2016-05-18T07:59:58.970Z,1004.92
2016-05-18T08:00:58.958Z,1004.98
2016-05-18T08:01:58.944Z,1004.98
2016-05-18T08:02:58.931Z,1005
2016-05-18T08:03:58.918Z,1005.01
2016-05-18T08:04:58.905Z,1005.03
2016-05-18T08:05:58.893Z,1005.01
2016-05-18T08:06:58.879Z,1005.01
2016-05-18T08:07:58.866Z,1004.98
2016-05-18T08:08:58.854Z,1005.05
2016-05-18T08:09:58.825Z,1005.04
2016-05-18T08:10:58.812Z,1004.99
2016-05-18T08:11:58.799Z,1004.99
2016-05-18T08:12:58.786Z,1004.99
2016-05-18T08:13:58.789Z,1004.95
2016-05-18T08:14:58.760Z,1004.96
2016-05-18T08:15:58.747Z,1004.96
2016-05-18T08:16:58.734Z,1004.97
2016-05-18T08:17:58.736Z,1004.98
2016-05-18T08:18:58.708Z,1004.95
2016-05-18T08:19:58.695Z,1004.94
2016-05-18T08:20:58.683Z,1004.9
2016-05-18T08:21:58.670Z,1004.94
2016-05-18T08:22:58.657Z,1004.9
2016-05-18T08:23:58.644Z,1004.86
2016-05-18T08:24:58.631Z,1004.86
2016-05-18T08:25:58.618Z,1004.89
2016-05-18T08:26:58.605Z,1004.9
2016-05-18T08:27:58.602Z,1004.89
2016-05-18T08:28:58.633Z,1004.84
2016-05-18T08:29:58.661Z,1004.87
2016-05-18T08:30:58.690Z,1004.8
2016-05-18T08:31:58.720Z,1004.83
2016-05-18T08:32:58.742Z,1004.82
2016-05-18T08:33:58.744Z,1004.77
2016-05-18T08:34:58.748Z,1004.77
2016-05-18T08:35:58.796Z,1004.81
2016-05-18T08:36:58.784Z,1004.77
2016-05-18T08:37:58.752Z,1004.81
2016-05-18T08:38:58.744Z,1004.78
2016-05-18T08:39:58.768Z,1004.76
2016-05-18T08:40:58.776Z,1004.79
2016-05-18T08:41:58.721Z,1004.76
2016-05-18T08:42:58.761Z,1004.79
2016-05-18T08:43:58.734Z,1004.75
2016-05-18T08:44:58.693Z,1004.78
2016-05-18T08:45:58.682Z,1004.72
2016-05-18T08:46:58.671Z,1004.73
2016-05-18T08:47:58.660Z,1004.76
2016-05-18T08:48:58.664Z,1004.77
2016-05-18T08:49:58.635Z,1004.73
2016-05-18T08:50:58.623Z,1004.74
2016-05-18T08:51:58.611Z,1004.63
2016-05-18T08:52:58.599Z,1004.69
2016-05-18T08:53:58.586Z,1004.63
2016-05-18T08:54:58.573Z,1004.66
2016-05-18T08:55:58.561Z,1004.61
2016-05-18T08:56:58.547Z,1004.63
2016-05-18T08:57:58.534Z,1004.61
2016-05-18T08:58:58.521Z,1004.63
2016-05-18T08:59:58.508Z,1004.61
2016-05-18T09:00:58.511Z,1004.62
2016-05-18T09:01:58.482Z,1004.57
2016-05-18T09:02:58.469Z,1004.65
2016-05-18T09:03:58.457Z,1004.56
2016-05-18T09:04:58.444Z,1004.62
2016-05-18T09:05:58.430Z,1004.58
2016-05-18T09:06:58.418Z,1004.62
2016-05-18T09:07:58.404Z,1004.55
2016-05-18T09:08:58.392Z,1004.54
2016-05-18T09:09:58.379Z,1004.55
2016-05-18T09:10:58.366Z,1004.54
2016-05-18T09:11:58.353Z,1004.51
2016-05-18T09:12:58.340Z,1004.52
2016-05-18T09:13:58.312Z,1004.46
2016-05-18T09:14:58.314Z,1004.46
2016-05-18T09:15:58.301Z,1004.45
2016-05-18T09:16:58.289Z,1004.43
2016-05-18T09:17:58.260Z,1004.47
2016-05-18T09:18:58.247Z,1004.45
2016-05-18T09:19:58.250Z,1004.44
2016-05-18T09:20:58.220Z,1004.4
2016-05-18T09:21:58.208Z,1004.4
2016-05-18T09:22:58.211Z,1004.39
2016-05-18T09:23:58.183Z,1004.37
2016-05-18T09:24:58.169Z,1004.4
2016-05-18T09:25:58.156Z,1004.35
2016-05-18T09:26:58.159Z,1004.35
2016-05-18T09:27:58.130Z,1004.31
2016-05-18T09:28:58.117Z,1004.32
2016-05-18T09:29:58.104Z,1004.33
2016-05-18T09:30:58.107Z,1004.32
2016-05-18T09:31:58.079Z,1004.31
2016-05-18T09:32:58.066Z,1004.26
2016-05-18T09:33:58.052Z,1004.27
2016-05-18T09:34:58.055Z,1004.29
2016-05-18T09:35:58.027Z,1004.22
2016-05-18T09:36:58.013Z,1004.3
2016-05-18T09:37:58.001Z,1004.29
2016-05-18T09:38:57.988Z,1004.27
2016-05-18T09:39:57.976Z,1004.26
2016-05-18T09:40:57.962Z,1004.2
2016-05-18T09:41:57.949Z,1004.21
2016-05-18T09:42:57.936Z,1004.15
2016-05-18T09:43:57.939Z,1004.23
2016-05-18T09:44:57.910Z,1004.23
2016-05-18T09:45:57.898Z,1004.18
2016-05-18T09:46:57.884Z,1004.22
2016-05-18T09:47:57.872Z,1004.19
2016-05-18T09:48:57.859Z,1004.16
2016-05-18T09:49:57.845Z,1004.14
2016-05-18T09:50:57.833Z,1004.15
2016-05-18T09:51:57.820Z,1004.16
2016-05-18T09:52:57.807Z,1004.13
2016-05-18T09:53:57.794Z,1004.11
2016-05-18T09:54:57.781Z,1004.13
2016-05-18T09:55:57.769Z,1004.13
2016-05-18T09:56:57.756Z,1004.11
2016-05-18T09:57:57.742Z,1004.15
2016-05-18T09:58:57.730Z,1004.1
2016-05-18T09:59:57.716Z,1004.12
2016-05-18T10:00:57.703Z,1004.1
2016-05-18T10:01:57.706Z,1004.08
2016-05-18T10:02:57.694Z,1004.06
2016-05-18T10:03:57.665Z,1004.07
2016-05-18T10:04:57.652Z,1004.08
2016-05-18T10:05:57.639Z,1004.07
2016-05-18T10:06:57.626Z,1004.06
2016-05-18T10:07:57.613Z,1004.04
2016-05-18T10:08:57.600Z,1004.03
2016-05-18T10:09:57.587Z,1003.95
2016-05-18T10:10:57.574Z,1003.96
2016-05-18T10:11:57.562Z,1003.93
2016-05-18T10:12:57.548Z,1003.92
2016-05-18T10:13:57.535Z,1003.9
2016-05-18T10:14:57.523Z,1003.91
2016-05-18T10:15:57.509Z,1003.88
2016-05-18T10:16:57.496Z,1003.85
2016-05-18T10:17:57.484Z,1003.9
2016-05-18T10:18:57.471Z,1003.9
2016-05-18T10:19:57.458Z,1003.94
2016-05-18T10:20:57.429Z,1003.86
2016-05-18T10:21:57.432Z,1003.86
2016-05-18T10:22:57.403Z,1003.87
2016-05-18T10:23:57.844Z,1003.82
2016-05-18T10:24:57.393Z,1003.84
2016-05-18T10:25:57.380Z,1003.82
2016-05-18T10:26:57.367Z,1003.81
2016-05-18T10:27:57.355Z,1003.85
2016-05-18T10:28:57.341Z,1003.82
2016-05-18T10:29:57.328Z,1003.77
2016-05-18T10:30:57.300Z,1003.78
2016-05-18T10:31:57.303Z,1003.81
2016-05-18T10:32:57.274Z,1003.76
2016-05-18T10:33:57.277Z,1003.8
2016-05-18T10:34:57.264Z,1003.76
2016-05-18T10:35:57.345Z,1003.75
2016-05-18T10:36:57.238Z,1003.75
2016-05-18T10:37:57.209Z,1003.79
2016-05-18T10:38:57.212Z,1003.74
2016-05-18T10:39:57.183Z,1003.75
2016-05-18T10:40:57.186Z,1003.79
2016-05-18T10:41:57.158Z,1003.78
2016-05-18T10:42:57.145Z,1003.7
2016-05-18T10:43:57.351Z,1003.72
2016-05-18T10:44:57.119Z,1003.75
2016-05-18T10:45:57.121Z,1003.73
2016-05-18T10:46:57.093Z,1003.76
2016-05-18T10:47:57.080Z,1003.74
2016-05-18T10:48:57.083Z,1003.74
2016-05-18T10:49:57.054Z,1003.76
2016-05-18T10:50:57.056Z,1003.72
2016-05-18T10:51:57.388Z,1003.76
2016-05-18T10:52:57.015Z,1003.78
2016-05-18T10:53:57.003Z,1003.68
2016-05-18T10:54:56.990Z,1003.7
2016-05-18T10:55:56.992Z,1003.72
2016-05-18T10:56:56.964Z,1003.68
2016-05-18T10:57:56.951Z,1003.69
2016-05-18T10:58:56.938Z,1003.67
2016-05-18T10:59:57.331Z,1003.72
2016-05-18T11:00:56.912Z,1003.69
2016-05-18T11:01:56.900Z,1003.71
2016-05-18T11:02:56.902Z,1003.68
2016-05-18T11:03:56.873Z,1003.63
2016-05-18T11:04:56.875Z,1003.65
2016-05-18T11:05:56.847Z,1003.57
2016-05-18T11:06:56.835Z,1003.61
2016-05-18T11:07:57.369Z,1003.61
2016-05-18T11:08:56.808Z,1003.62
2016-05-18T11:09:56.795Z,1003.57
2016-05-18T11:10:56.783Z,1003.58
2016-05-18T11:11:56.769Z,1003.57
2016-05-18T11:12:56.757Z,1003.53
2016-05-18T11:13:56.744Z,1003.55
2016-05-18T11:14:56.731Z,1003.52
2016-05-18T11:15:57.467Z,1003.55
2016-05-18T11:16:56.705Z,1003.59
2016-05-18T11:17:56.692Z,1003.53
2016-05-18T11:18:56.695Z,1003.47
2016-05-18T11:19:56.665Z,1003.45
2016-05-18T11:20:56.668Z,1003.46
2016-05-18T11:21:56.640Z,1003.44
2016-05-18T11:22:56.628Z,1003.48
2016-05-18T11:23:57.364Z,1003.39
2016-05-18T11:24:56.617Z,1003.4
2016-05-18T11:25:56.589Z,1003.4
2016-05-18T11:26:56.575Z,1003.38
2016-05-18T11:27:56.563Z,1003.39
2016-05-18T11:28:56.550Z,1003.36
2016-05-18T11:29:56.536Z,1003.39
2016-05-18T11:30:56.539Z,1003.39
2016-05-18T11:31:56.667Z,1003.43
2016-05-18T11:32:56.497Z,1003.33
2016-05-18T11:33:56.485Z,1003.35
2016-05-18T11:34:56.472Z,1003.35
2016-05-18T11:35:56.459Z,1003.32
2016-05-18T11:36:56.446Z,1003.3
2016-05-18T11:37:56.433Z,1003.28
2016-05-18T11:38:56.452Z,1003.26
2016-05-18T11:39:56.673Z,1003.24
2016-05-18T11:40:56.394Z,1003.24
2016-05-18T11:41:56.397Z,1003.23
2016-05-18T11:42:56.369Z,1003.23
2016-05-18T11:43:56.371Z,1003.22
2016-05-18T11:44:56.343Z,1003.15
2016-05-18T11:45:56.329Z,1003.22
2016-05-18T11:46:56.317Z,1003.21
2016-05-18T11:47:56.663Z,1003.18
2016-05-18T11:48:56.306Z,1003.19
2016-05-18T11:49:56.294Z,1003.15
2016-05-18T11:50:56.281Z,1003.13
2016-05-18T11:51:56.267Z,1003.11
2016-05-18T11:52:56.380Z,1003.15
2016-05-18T11:53:56.242Z,1003.09
2016-05-18T11:54:56.229Z,1003.08
2016-05-18T11:55:56.716Z,1003.08
2016-05-18T11:56:56.203Z,1003.07
2016-05-18T11:57:56.190Z,1003.08
2016-05-18T11:58:56.177Z,1003.02
2016-05-18T11:59:56.164Z,1003.05
2016-05-18T12:00:56.151Z,1003.03
2016-05-18T12:01:56.138Z,1003.02
2016-05-18T12:02:56.125Z,1003.05
2016-05-18T12:03:56.113Z,1003.04
2016-05-18T12:04:56.100Z,1002.97
2016-05-18T12:05:56.086Z,1003
2016-05-18T12:06:56.074Z,1002.98